sensor_id;sensor_type;location;lat;lon;timestamp;temperature;humidity
14600;DHT22;7386;45.586;12.854;2022-08-19T08:41:11;25.70;94.30
14600;DHT22;7386;45.586;12.854;2022-08-19T08:43:48;25.20;92.50
14600;DHT22;7386;45.586;12.854;2022-08-19T08:46:24;25.20;92.50
14600;DHT22;7386;45.586;12.854;2022-08-19T08:49:04;25.20;92.50
14600;DHT22;7386;45.586;12.854;2022-08-19T08:51:39;25.20;92.60
14600;DHT22;7386;45.586;12.854;2022-08-19T08:54:20;25.30;92.50
14600;DHT22;7386;45.586;12.854;2022-08-19T08:56:53;25.30;92.40
14600;DHT22;7386;45.586;12.854;2022-08-19T08:59:33;25.40;92.50
14600;DHT22;7386;45.586;12.854;2022-08-19T09:02:03;25.40;92.40
14600;DHT22;7386;45.586;12.854;2022-08-19T09:04:31;25.60;92.40
14600;DHT22;7386;45.586;12.854;2022-08-19T09:10:08;25.60;91.80
14600;DHT22;7386;45.586;12.854;2022-08-19T09:12:43;25.70;91.80
14600;DHT22;7386;45.586;12.854;2022-08-19T09:15:14;25.80;91.60
14600;DHT22;7386;45.586;12.854;2022-08-19T09:17:44;25.90;91.50
14600;DHT22;7386;45.586;12.854;2022-08-19T09:20:19;26.00;91.70
14600;DHT22;7386;45.586;12.854;2022-08-19T09:22:50;26.10;91.50
14600;DHT22;7386;45.586;12.854;2022-08-19T09:25:21;26.20;91.50
14600;DHT22;7386;45.586;12.854;2022-08-19T09:27:56;26.30;91.40
14600;DHT22;7386;45.586;12.854;2022-08-19T09:30:34;26.40;91.30
14600;DHT22;7386;45.586;12.854;2022-08-19T09:33:02;26.50;91.20
14600;DHT22;7386;45.586;12.854;2022-08-19T09:35:31;26.60;91.00
14600;DHT22;7386;45.586;12.854;2022-08-19T09:38:21;26.60;90.70
14600;DHT22;7386;45.586;12.854;2022-08-19T09:40:50;26.60;90.80
14600;DHT22;7386;45.586;12.854;2022-08-19T09:43:18;26.70;90.50
14600;DHT22;7386;45.586;12.854;2022-08-19T09:46:00;26.70;90.70
14600;DHT22;7386;45.586;12.854;2022-08-19T09:48:28;26.80;90.40
14600;DHT22;7386;45.586;12.854;2022-08-19T09:51:03;26.80;90.00
14600;DHT22;7386;45.586;12.854;2022-08-19T09:53:33;26.90;90.00
14600;DHT22;7386;45.586;12.854;2022-08-19T09:56:04;26.90;90.00
14600;DHT22;7386;45.586;12.854;2022-08-19T09:58:34;26.90;90.00
14600;DHT22;7386;45.586;12.854;2022-08-19T10:01:04;27.00;89.40
14600;DHT22;7386;45.586;12.854;2022-08-19T10:03:34;27.20;89.80
14600;DHT22;7386;45.586;12.854;2022-08-19T10:06:05;27.20;89.10
14600;DHT22;7386;45.586;12.854;2022-08-19T10:08:42;27.30;88.70
14600;DHT22;7386;45.586;12.854;2022-08-19T10:11:16;27.30;89.30
14600;DHT22;7386;45.586;12.854;2022-08-19T10:13:54;27.40;89.80
14600;DHT22;7386;45.586;12.854;2022-08-19T10:16:23;27.60;90.00
14600;DHT22;7386;45.586;12.854;2022-08-19T10:18:56;27.80;90.00
14600;DHT22;7386;45.586;12.854;2022-08-19T10:21:32;27.90;90.10
14600;DHT22;7386;45.586;12.854;2022-08-19T10:24:07;28.00;90.10
14600;DHT22;7386;45.586;12.854;2022-08-19T10:26:38;28.10;90.00
14600;DHT22;7386;45.586;12.854;2022-08-19T10:29:12;28.10;90.00
14600;DHT22;7386;45.586;12.854;2022-08-19T10:31:59;28.20;90.00
14600;DHT22;7386;45.586;12.854;2022-08-19T10:34:29;28.20;90.00
14600;DHT22;7386;45.586;12.854;2022-08-19T10:36:59;28.10;90.10
14600;DHT22;7386;45.586;12.854;2022-08-19T10:39:30;28.10;90.20
14600;DHT22;7386;45.586;12.854;2022-08-19T10:42:09;28.00;90.30
14600;DHT22;7386;45.586;12.854;2022-08-19T10:44:42;28.00;90.30
14600;DHT22;7386;45.586;12.854;2022-08-19T10:47:10;28.10;90.30
14600;DHT22;7386;45.586;12.854;2022-08-19T10:49:51;28.10;90.50
14600;DHT22;7386;45.586;12.854;2022-08-19T10:52:38;28.00;90.60
14600;DHT22;7386;45.586;12.854;2022-08-19T10:55:18;28.00;90.80
14600;DHT22;7386;45.586;12.854;2022-08-19T10:58:10;27.90;91.00
14600;DHT22;7386;45.586;12.854;2022-08-19T11:00:39;27.80;90.90
14600;DHT22;7386;45.586;12.854;2022-08-19T11:03:09;27.70;91.10
14600;DHT22;7386;45.586;12.854;2022-08-19T11:05:40;27.60;91.10
14600;DHT22;7386;45.586;12.854;2022-08-19T11:08:08;27.50;91.10
14600;DHT22;7386;45.586;12.854;2022-08-19T11:10:51;27.40;91.10
14600;DHT22;7386;45.586;12.854;2022-08-19T11:13:28;27.30;91.20
14600;DHT22;7386;45.586;12.854;2022-08-19T11:16:01;27.20;91.30
14600;DHT22;7386;45.586;12.854;2022-08-19T11:18:35;27.20;91.10
14600;DHT22;7386;45.586;12.854;2022-08-19T11:21:09;27.10;91.20
14600;DHT22;7386;45.586;12.854;2022-08-19T11:23:38;27.10;91.30
14600;DHT22;7386;45.586;12.854;2022-08-19T11:26:08;27.10;91.20
14600;DHT22;7386;45.586;12.854;2022-08-19T11:28:37;27.10;91.20
14600;DHT22;7386;45.586;12.854;2022-08-19T11:31:10;27.10;91.30
14600;DHT22;7386;45.586;12.854;2022-08-19T11:33:38;27.10;91.30
14600;DHT22;7386;45.586;12.854;2022-08-19T11:36:07;27.20;91.40
14600;DHT22;7386;45.586;12.854;2022-08-19T11:38:40;27.20;91.30
14600;DHT22;7386;45.586;12.854;2022-08-19T11:41:10;27.20;91.10
14600;DHT22;7386;45.586;12.854;2022-08-19T11:43:39;27.20;91.10
14600;DHT22;7386;45.586;12.854;2022-08-19T11:46:08;27.20;90.80
14600;DHT22;7386;45.586;12.854;2022-08-19T11:48:39;27.10;90.80
14600;DHT22;7386;45.586;12.854;2022-08-19T11:51:10;27.00;90.80
14600;DHT22;7386;45.586;12.854;2022-08-19T11:53:39;27.00;91.10
14600;DHT22;7386;45.586;12.854;2022-08-19T11:56:10;26.90;91.10
14600;DHT22;7386;45.586;12.854;2022-08-19T11:58:38;26.90;91.20
14600;DHT22;7386;45.586;12.854;2022-08-19T12:01:09;26.90;91.30
14600;DHT22;7386;45.586;12.854;2022-08-19T12:03:38;26.90;91.40
14600;DHT22;7386;45.586;12.854;2022-08-19T12:06:09;26.80;91.50
14600;DHT22;7386;45.586;12.854;2022-08-19T12:08:39;26.80;91.50
14600;DHT22;7386;45.586;12.854;2022-08-19T12:11:08;26.80;91.90
14600;DHT22;7386;45.586;12.854;2022-08-19T12:13:38;26.80;91.30
14600;DHT22;7386;45.586;12.854;2022-08-19T12:16:07;26.90;91.20
14600;DHT22;7386;45.586;12.854;2022-08-19T12:18:36;26.80;91.10
14600;DHT22;7386;45.586;12.854;2022-08-19T12:21:05;26.90;91.00
14600;DHT22;7386;45.586;12.854;2022-08-19T12:23:33;26.90;90.50
14600;DHT22;7386;45.586;12.854;2022-08-19T12:26:04;27.00;90.50
14600;DHT22;7386;45.586;12.854;2022-08-19T12:28:32;26.90;90.50
14600;DHT22;7386;45.586;12.854;2022-08-19T12:31:02;27.00;90.60
14600;DHT22;7386;45.586;12.854;2022-08-19T12:33:31;27.10;90.40
14600;DHT22;7386;45.586;12.854;2022-08-19T12:36:01;27.10;90.20
14600;DHT22;7386;45.586;12.854;2022-08-19T12:38:32;27.20;90.30
14600;DHT22;7386;45.586;12.854;2022-08-19T12:41:01;27.30;90.70
14600;DHT22;7386;45.586;12.854;2022-08-19T12:43:33;27.30;91.60
14600;DHT22;7386;45.586;12.854;2022-08-19T12:46:03;27.30;91.70
14600;DHT22;7386;45.586;12.854;2022-08-19T12:48:32;27.30;91.40
14600;DHT22;7386;45.586;12.854;2022-08-19T12:51:05;27.30;91.80
14600;DHT22;7386;45.586;12.854;2022-08-19T12:53:34;27.20;92.60
14600;DHT22;7386;45.586;12.854;2022-08-19T12:56:05;27.20;92.70
14600;DHT22;7386;45.586;12.854;2022-08-19T12:58:38;27.10;92.40
14600;DHT22;7386;45.586;12.854;2022-08-19T13:01:18;27.10;93.00
14600;DHT22;7386;45.586;12.854;2022-08-19T13:03:49;27.10;93.00
14600;DHT22;7386;45.586;12.854;2022-08-19T13:06:19;27.00;93.10
14600;DHT22;7386;45.586;12.854;2022-08-19T13:08:48;26.90;93.20
14600;DHT22;7386;45.586;12.854;2022-08-19T13:11:19;27.00;93.00
14600;DHT22;7386;45.586;12.854;2022-08-19T13:13:52;26.90;93.40
14600;DHT22;7386;45.586;12.854;2022-08-19T13:16:24;26.90;93.10
14600;DHT22;7386;45.586;12.854;2022-08-19T13:18:55;26.90;93.50
14600;DHT22;7386;45.586;12.854;2022-08-19T13:21:26;26.90;93.50
14600;DHT22;7386;45.586;12.854;2022-08-19T13:23:57;26.80;93.50
14600;DHT22;7386;45.586;12.854;2022-08-19T13:26:25;26.90;93.40
14600;DHT22;7386;45.586;12.854;2022-08-19T13:28:53;26.80;93.50
14600;DHT22;7386;45.586;12.854;2022-08-19T13:31:41;26.80;93.50
14600;DHT22;7386;45.586;12.854;2022-08-19T13:34:31;26.80;93.60
14600;DHT22;7386;45.586;12.854;2022-08-19T13:37:01;26.70;93.50
14600;DHT22;7386;45.586;12.854;2022-08-19T13:39:31;26.70;93.80
14600;DHT22;7386;45.586;12.854;2022-08-19T13:42:00;26.70;93.90
14600;DHT22;7386;45.586;12.854;2022-08-19T13:44:29;26.70;93.80
14600;DHT22;7386;45.586;12.854;2022-08-19T13:47:02;26.60;93.50
14600;DHT22;7386;45.586;12.854;2022-08-19T13:49:33;26.60;93.50
14600;DHT22;7386;45.586;12.854;2022-08-19T13:52:03;26.60;93.40
14600;DHT22;7386;45.586;12.854;2022-08-19T13:54:32;26.50;93.40
14600;DHT22;7386;45.586;12.854;2022-08-19T13:57:00;26.60;93.40
14600;DHT22;7386;45.586;12.854;2022-08-19T13:59:28;26.50;93.30
14600;DHT22;7386;45.586;12.854;2022-08-19T14:01:58;26.50;93.30
14600;DHT22;7386;45.586;12.854;2022-08-19T14:04:29;26.50;93.20
14600;DHT22;7386;45.586;12.854;2022-08-19T14:06:58;26.40;93.30
14600;DHT22;7386;45.586;12.854;2022-08-19T14:09:26;26.30;93.50
14600;DHT22;7386;45.586;12.854;2022-08-19T14:11:54;26.30;93.50
14600;DHT22;7386;45.586;12.854;2022-08-19T14:14:23;26.30;93.50
14600;DHT22;7386;45.586;12.854;2022-08-19T14:16:54;26.20;93.30
14600;DHT22;7386;45.586;12.854;2022-08-19T14:19:23;26.20;93.40
14600;DHT22;7386;45.586;12.854;2022-08-19T14:21:57;26.20;93.50
14600;DHT22;7386;45.586;12.854;2022-08-19T14:24:26;26.10;93.40
14600;DHT22;7386;45.586;12.854;2022-08-19T14:26:54;26.10;93.50
14600;DHT22;7386;45.586;12.854;2022-08-19T14:29:23;26.10;93.50
14600;DHT22;7386;45.586;12.854;2022-08-19T14:31:51;26.00;93.60
14600;DHT22;7386;45.586;12.854;2022-08-19T14:34:20;26.00;93.60
14600;DHT22;7386;45.586;12.854;2022-08-19T14:36:48;26.10;93.90
14600;DHT22;7386;45.586;12.854;2022-08-19T14:39:18;26.10;93.90
14600;DHT22;7386;45.586;12.854;2022-08-19T14:41:47;26.10;93.80
14600;DHT22;7386;45.586;12.854;2022-08-19T14:44:15;26.10;93.60
14600;DHT22;7386;45.586;12.854;2022-08-19T14:46:44;26.10;93.60
14600;DHT22;7386;45.586;12.854;2022-08-19T14:49:15;26.10;93.70
14600;DHT22;7386;45.586;12.854;2022-08-19T14:51:44;26.10;93.80
14600;DHT22;7386;45.586;12.854;2022-08-19T14:54:13;26.10;93.60
14600;DHT22;7386;45.586;12.854;2022-08-19T14:56:44;26.10;93.60
14600;DHT22;7386;45.586;12.854;2022-08-19T14:59:12;26.10;93.40
14600;DHT22;7386;45.586;12.854;2022-08-19T15:01:41;26.20;93.30
14600;DHT22;7386;45.586;12.854;2022-08-19T15:04:09;26.20;93.00
14600;DHT22;7386;45.586;12.854;2022-08-19T15:06:38;26.20;92.90
14600;DHT22;7386;45.586;12.854;2022-08-19T15:09:06;26.20;92.90
14600;DHT22;7386;45.586;12.854;2022-08-19T15:11:35;26.20;92.80
14600;DHT22;7386;45.586;12.854;2022-08-19T15:14:05;26.20;92.60
14600;DHT22;7386;45.586;12.854;2022-08-19T15:16:33;26.20;92.30
14600;DHT22;7386;45.586;12.854;2022-08-19T15:19:02;26.10;92.50
14600;DHT22;7386;45.586;12.854;2022-08-19T15:21:30;26.10;92.70
14600;DHT22;7386;45.586;12.854;2022-08-19T15:23:59;26.10;92.90
14600;DHT22;7386;45.586;12.854;2022-08-19T15:26:29;26.10;93.00
14600;DHT22;7386;45.586;12.854;2022-08-19T15:28:59;26.10;93.00
14600;DHT22;7386;45.586;12.854;2022-08-19T15:31:30;26.10;92.90
14600;DHT22;7386;45.586;12.854;2022-08-19T15:34:03;26.10;92.60
14600;DHT22;7386;45.586;12.854;2022-08-19T15:36:33;26.10;92.60
14600;DHT22;7386;45.586;12.854;2022-08-19T15:39:02;26.10;92.60
14600;DHT22;7386;45.586;12.854;2022-08-19T15:41:32;26.10;92.60
14600;DHT22;7386;45.586;12.854;2022-08-19T15:44:05;26.10;92.50
14600;DHT22;7386;45.586;12.854;2022-08-19T15:46:38;26.10;92.30
14600;DHT22;7386;45.586;12.854;2022-08-19T15:49:08;26.10;92.30
14600;DHT22;7386;45.586;12.854;2022-08-19T15:51:37;26.00;92.30
14600;DHT22;7386;45.586;12.854;2022-08-19T15:54:09;26.00;92.30
14600;DHT22;7386;45.586;12.854;2022-08-19T15:56:38;26.00;92.30
14600;DHT22;7386;45.586;12.854;2022-08-19T15:59:24;25.90;92.50
14600;DHT22;7386;45.586;12.854;2022-08-19T16:02:15;25.90;92.50
14600;DHT22;7386;45.586;12.854;2022-08-19T16:05:06;26.00;92.80
14600;DHT22;7386;45.586;12.854;2022-08-19T16:07:52;25.90;92.70
14600;DHT22;7386;45.586;12.854;2022-08-19T16:10:23;26.00;92.70
14600;DHT22;7386;45.586;12.854;2022-08-19T16:12:54;26.00;92.70
14600;DHT22;7386;45.586;12.854;2022-08-19T16:15:24;26.00;92.60
14600;DHT22;7386;45.586;12.854;2022-08-19T16:17:55;26.00;92.80
14600;DHT22;7386;45.586;12.854;2022-08-19T16:20:26;26.00;92.80
14600;DHT22;7386;45.586;12.854;2022-08-19T16:22:55;26.00;92.60
14600;DHT22;7386;45.586;12.854;2022-08-19T16:25:25;26.10;92.50
14600;DHT22;7386;45.586;12.854;2022-08-19T16:27:55;26.10;92.30
14600;DHT22;7386;45.586;12.854;2022-08-19T16:30:35;26.10;92.20
14600;DHT22;7386;45.586;12.854;2022-08-19T16:33:05;26.20;92.10
14600;DHT22;7386;45.586;12.854;2022-08-19T16:35:33;26.20;92.00
14600;DHT22;7386;45.586;12.854;2022-08-19T16:38:02;26.20;92.00
14600;DHT22;7386;45.586;12.854;2022-08-19T16:40:30;26.20;92.00
14600;DHT22;7386;45.586;12.854;2022-08-19T16:42:59;26.20;92.10
14600;DHT22;7386;45.586;12.854;2022-08-19T16:45:29;26.30;92.20
14600;DHT22;7386;45.586;12.854;2022-08-19T16:47:57;26.20;92.20
14600;DHT22;7386;45.586;12.854;2022-08-19T16:50:27;26.20;92.20
14600;DHT22;7386;45.586;12.854;2022-08-19T16:53:15;26.30;92.20
14600;DHT22;7386;45.586;12.854;2022-08-19T16:55:46;26.30;92.20
14600;DHT22;7386;45.586;12.854;2022-08-19T16:58:17;26.30;92.30
14600;DHT22;7386;45.586;12.854;2022-08-19T17:00:46;26.30;92.30
14600;DHT22;7386;45.586;12.854;2022-08-19T17:03:16;26.30;92.20
14600;DHT22;7386;45.586;12.854;2022-08-19T17:06:09;26.30;92.30
14600;DHT22;7386;45.586;12.854;2022-08-19T17:08:47;26.30;92.30
14600;DHT22;7386;45.586;12.854;2022-08-19T17:11:16;26.30;92.20
14600;DHT22;7386;45.586;12.854;2022-08-19T17:13:45;26.20;91.90
14600;DHT22;7386;45.586;12.854;2022-08-19T17:16:17;26.20;91.70
14600;DHT22;7386;45.586;12.854;2022-08-19T17:18:47;26.20;91.60
14600;DHT22;7386;45.586;12.854;2022-08-19T17:21:35;26.20;91.60
14600;DHT22;7386;45.586;12.854;2022-08-19T17:24:18;26.20;91.50
14600;DHT22;7386;45.586;12.854;2022-08-19T17:26:51;26.10;91.40
14600;DHT22;7386;45.586;12.854;2022-08-19T17:32:16;26.10;91.30
14600;DHT22;7386;45.586;12.854;2022-08-19T17:34:56;26.10;91.30
14600;DHT22;7386;45.586;12.854;2022-08-19T17:37:26;26.00;91.30
14600;DHT22;7386;45.586;12.854;2022-08-19T17:39:55;26.00;91.40
14600;DHT22;7386;45.586;12.854;2022-08-19T17:42:23;26.00;91.40
14600;DHT22;7386;45.586;12.854;2022-08-19T17:44:52;26.00;91.40
14600;DHT22;7386;45.586;12.854;2022-08-19T17:47:24;25.90;91.40
14600;DHT22;7386;45.586;12.854;2022-08-19T17:49:53;25.90;91.40
